createdAt,value
2023-04-28T00:00:06.050Z,7.40
2023-04-28T00:06:08.483Z,7.40
2023-04-28T00:12:12.021Z,7.40
2023-04-28T00:18:14.530Z,7.40
2023-04-28T00:24:17.354Z,7.40
2023-04-28T00:30:20.093Z,7.30
2023-04-28T00:36:22.529Z,7.40
2023-04-28T00:42:25.687Z,7.50
2023-04-28T00:48:29.994Z,7.60
2023-04-28T00:54:34.257Z,7.80
2023-04-28T01:00:36.652Z,7.90
2023-04-28T01:06:39.237Z,8.10
2023-04-28T01:12:41.742Z,8.20
2023-04-28T01:18:48.455Z,8.20
2023-04-28T01:24:50.952Z,8.20
2023-04-28T01:30:53.325Z,8.20
2023-04-28T01:36:56.815Z,8.10
2023-04-28T01:42:59.036Z,8.00
2023-04-28T01:49:01.503Z,7.90
2023-04-28T01:55:04.031Z,7.80
2023-04-28T02:01:07.372Z,7.80
2023-04-28T02:07:09.926Z,7.70
2023-04-28T02:13:12.608Z,7.60
2023-04-28T02:19:15.996Z,7.40
2023-04-28T02:25:18.424Z,7.40
2023-04-28T02:31:21.837Z,7.40
2023-04-28T02:37:24.612Z,7.40
2023-04-28T02:43:28.103Z,7.40
2023-04-28T02:49:30.512Z,7.40
2023-04-28T02:55:33.138Z,7.50
2023-04-28T03:01:35.560Z,7.60
2023-04-28T03:07:38.119Z,7.60
2023-04-28T03:13:40.476Z,7.60
2023-04-28T03:19:43.277Z,7.60
2023-04-28T03:25:46.098Z,7.60
2023-04-28T03:31:48.658Z,7.60
2023-04-28T03:37:50.996Z,7.60
2023-04-28T03:43:54.026Z,7.80
2023-04-28T03:50:16.627Z,8.00
2023-04-28T03:56:19.069Z,8.20
2023-04-28T04:02:22.439Z,8.30
2023-04-28T04:08:25.047Z,8.50
2023-04-28T04:14:27.691Z,8.70
2023-04-28T04:20:30.530Z,8.80
2023-04-28T04:26:32.903Z,9.10
2023-04-28T04:32:36.136Z,9.30
2023-04-28T04:38:38.748Z,9.60
2023-04-28T04:44:48.935Z,9.90
2023-04-28T04:51:02.909Z,9.90
2023-04-28T04:57:05.717Z,10.20
2023-04-28T05:03:30.980Z,10.80
2023-04-28T05:09:34.878Z,11.40
2023-04-28T05:15:37.177Z,12.30
2023-04-28T05:21:57.443Z,13.70
2023-04-28T05:27:59.975Z,17.80
2023-04-28T05:34:02.884Z,21.40
2023-04-28T05:40:05.775Z,19.90
2023-04-28T05:46:18.126Z,18.70
2023-04-28T05:52:33.155Z,18.80
2023-04-28T05:58:35.829Z,23.50
2023-04-28T06:04:39.554Z,25.50
2023-04-28T06:10:42.729Z,27.20
2023-04-28T06:16:45.206Z,27.20
2023-04-28T06:22:49.594Z,28.30
2023-04-28T06:28:52.913Z,27.00
2023-04-28T06:34:57.104Z,26.50
2023-04-28T06:41:01.376Z,27.60
2023-04-28T06:47:04.690Z,22.60
2023-04-28T06:53:08.403Z,19.90
2023-04-28T06:59:10.727Z,19.30
2023-04-28T07:05:14.816Z,19.70
2023-04-28T07:11:18.785Z,18.80
2023-04-28T07:17:21.061Z,20.30
2023-04-28T07:23:23.527Z,22.30
2023-04-28T07:29:25.863Z,23.40
2023-04-28T07:35:28.922Z,22.50
2023-04-28T07:41:31.215Z,21.60
2023-04-28T07:47:33.671Z,21.50
2023-04-28T07:53:36.959Z,19.30
2023-04-28T07:59:39.503Z,19.10
2023-04-28T08:05:41.896Z,19.10
2023-04-28T08:11:44.065Z,19.10
2023-04-28T08:17:46.253Z,19.40
2023-04-28T08:23:48.519Z,24.60
2023-04-28T08:29:50.559Z,26.30
2023-04-28T08:35:52.966Z,27.90
2023-04-28T08:41:55.391Z,25.40
2023-04-28T08:48:00.572Z,21.50
2023-04-28T08:54:24.901Z,22.80
2023-04-28T09:00:27.590Z,25.60
2023-04-28T09:06:37.246Z,21.70
2023-04-28T09:12:39.499Z,19.50
2023-04-28T09:18:42.040Z,18.40
2023-04-28T09:24:44.608Z,19.60
2023-04-28T09:30:46.774Z,21.20
2023-04-28T09:36:49.398Z,25.00
2023-04-28T09:42:51.796Z,21.20
2023-04-28T09:49:02.207Z,23.80
2023-04-28T09:55:07.386Z,20.80
2023-04-28T10:01:12.223Z,18.90
2023-04-28T10:07:16.864Z,20.30
2023-04-28T10:13:19.953Z,23.00
2023-04-28T10:19:22.277Z,21.50
2023-04-28T10:25:32.993Z,19.90
2023-04-28T10:31:35.329Z,19.90
2023-04-28T10:37:55.899Z,23.50
2023-04-28T10:43:58.648Z,24.00
2023-04-28T10:50:10.346Z,24.00
2023-04-28T10:56:13.455Z,22.60
2023-04-28T11:02:44.495Z,20.70
2023-04-28T11:08:47.499Z,22.70
2023-04-28T11:14:49.925Z,23.70
2023-04-28T11:20:58.341Z,24.00
2023-04-28T11:27:01.751Z,21.90
2023-04-28T11:33:04.241Z,23.60
2023-04-28T11:39:08.783Z,23.40
2023-04-28T11:45:13.299Z,23.80
2023-04-28T11:51:35.109Z,21.70
2023-04-28T11:57:37.417Z,23.20
2023-04-28T12:03:46.904Z,22.30
2023-04-28T12:10:13.295Z,20.30
2023-04-28T12:16:40.174Z,22.70
2023-04-28T12:22:51.086Z,24.60
2023-04-28T12:28:53.216Z,26.10
2023-04-28T12:34:55.376Z,23.70
2023-04-28T12:40:58.043Z,22.30
2023-04-28T12:47:00.638Z,21.70
2023-04-28T12:53:02.784Z,25.20
2023-04-28T12:59:05.066Z,26.10
2023-04-28T13:05:08.249Z,25.60
2023-04-28T13:11:21.967Z,24.90
2023-04-28T13:17:25.110Z,23.30
2023-04-28T13:23:27.594Z,22.20
2023-04-28T13:29:30.485Z,20.40
2023-04-28T13:35:32.763Z,19.50
2023-04-28T13:41:35.305Z,19.30
2023-04-28T13:47:37.842Z,19.10
2023-04-28T13:53:40.469Z,19.10
2023-04-28T13:59:42.922Z,18.70
2023-04-28T14:05:49.287Z,18.40
2023-04-28T14:11:52.070Z,18.20
2023-04-28T14:17:54.865Z,18.10
2023-04-28T14:23:57.202Z,18.00
2023-04-28T14:30:00.538Z,17.70
2023-04-28T14:36:03.145Z,17.40
2023-04-28T14:42:09.291Z,17.50
2023-04-28T14:48:12.163Z,17.60
2023-04-28T14:54:14.863Z,17.40
2023-04-28T15:00:17.669Z,17.10
2023-04-28T15:06:20.194Z,16.80
2023-04-28T15:12:22.645Z,16.60
2023-04-28T15:18:25.651Z,16.50
2023-04-28T15:24:28.297Z,16.40
2023-04-28T15:30:30.574Z,16.30
2023-04-28T15:36:38.247Z,16.20
2023-04-28T15:42:49.338Z,16.40
2023-04-28T15:48:52.498Z,16.50
2023-04-28T15:54:58.244Z,16.50
2023-04-28T16:01:00.856Z,16.30
2023-04-28T16:07:04.887Z,16.20
2023-04-28T16:13:11.516Z,15.80
2023-04-28T16:19:16.292Z,15.60
2023-04-28T16:25:18.916Z,15.50
2023-04-28T16:31:21.453Z,15.30
2023-04-28T16:37:24.148Z,15.10
2023-04-28T16:43:26.703Z,15.00
2023-04-28T16:49:29.104Z,14.70
2023-04-28T16:55:31.991Z,14.60
2023-04-28T17:01:34.686Z,14.40
2023-04-28T17:07:37.338Z,14.30
2023-04-28T17:13:40.092Z,14.20
2023-04-28T17:19:42.834Z,14.00
2023-04-28T17:25:45.233Z,13.90
2023-04-28T17:31:48.032Z,13.80
2023-04-28T17:37:51.024Z,13.60
2023-04-28T17:43:53.339Z,13.60
2023-04-28T17:49:55.718Z,13.50
2023-04-28T17:55:58.129Z,13.40
2023-04-28T18:02:00.808Z,13.30
2023-04-28T18:08:06.599Z,13.20
2023-04-28T18:14:08.962Z,13.10
2023-04-28T18:20:11.650Z,12.90
2023-04-28T18:26:14.413Z,12.70
2023-04-28T18:32:16.879Z,12.60
2023-04-28T18:38:19.488Z,12.60
2023-04-28T18:44:21.966Z,12.50
2023-04-28T18:50:24.526Z,12.40
2023-04-28T18:56:27.188Z,12.30
2023-04-28T19:02:29.862Z,12.30
2023-04-28T19:08:32.420Z,12.20
2023-04-28T19:14:36.407Z,12.10
2023-04-28T19:20:38.662Z,12.10
2023-04-28T19:26:41.019Z,12.00
2023-04-28T19:32:44.772Z,11.90
2023-04-28T19:38:47.266Z,11.80
2023-04-28T19:44:54.854Z,11.80
2023-04-28T19:50:57.648Z,11.80
2023-04-28T19:57:02.217Z,11.60
2023-04-28T20:03:04.963Z,11.40
2023-04-28T20:09:08.155Z,11.20
2023-04-28T20:15:11.010Z,11.20
2023-04-28T20:21:13.512Z,11.20
2023-04-28T20:27:16.148Z,11.10
2023-04-28T20:33:18.941Z,11.00
2023-04-28T20:39:24.218Z,10.90
2023-04-28T20:45:26.560Z,10.90
2023-04-28T20:51:34.127Z,10.80
2023-04-28T20:57:36.826Z,10.70
2023-04-28T21:03:39.637Z,10.60
2023-04-28T21:09:42.954Z,10.60
2023-04-28T21:15:45.465Z,10.70
2023-04-28T21:21:48.052Z,10.50
2023-04-28T21:27:50.488Z,10.40
2023-04-28T21:33:52.979Z,10.30
2023-04-28T21:39:56.932Z,10.30
2023-04-28T21:45:59.398Z,10.20
2023-04-28T21:52:01.713Z,10.20
2023-04-28T21:58:04.020Z,10.10
2023-04-28T22:04:09.786Z,10.00
2023-04-28T22:10:13.637Z,9.90
2023-04-28T22:16:16.797Z,9.80
2023-04-28T22:22:19.597Z,9.70
2023-04-28T22:28:23.009Z,9.60
2023-04-28T22:34:26.175Z,9.60
2023-04-28T22:40:29.001Z,9.70
2023-04-28T22:46:31.764Z,9.60
2023-04-28T22:52:34.616Z,9.60
2023-04-28T22:58:37.387Z,9.50
2023-04-28T23:04:40.456Z,9.30
2023-04-28T23:10:43.161Z,9.30
2023-04-28T23:16:45.797Z,9.10
2023-04-28T23:22:48.137Z,9.00
2023-04-28T23:28:50.734Z,9.00
2023-04-28T23:34:53.453Z,8.90
2023-04-28T23:40:56.095Z,8.80
2023-04-28T23:46:58.524Z,8.70
2023-04-28T23:53:01.073Z,8.50
2023-04-28T23:59:03.782Z,8.50
